Aérodrome :
LOGIN :

S'inscrire | Disclaimer

   EN    FR    IT 

 










Légende :    VFR   VFR Marginal   IFR   IFR Intensif   IFR Très Intensif
Visi : 
Plafond : 
>= 8 km
>= 3000ft
5 à 8 km
1000 à 3000 ft
1500m à 5 km
500 à 1000 ft
800 à 1500m
200 à 500 ft
< 800m
< 200 ft
Symboles :   Orages  Brouillard  Fortes neiges  Fortes précipitations  Vent > 20 kt
SIGMETs :   Divers  Orages  Givrage  Turbulence  Onde Orograph.  Cendres Volcan.






- Altitude de l'aérodrome : 375 ft
- Code IATA : MST


EHBK - Maastricht Aachen

DERNIER METAR :
  • 100425Z AUTO 23006KT 9999 NCD 02/01 Q1024

METARs EXPIRÉS :
  • 100355Z AUTO 24005KT 9999 NCD 02/01 Q1024
  • 100325Z AUTO 24004KT 210V270 9999 NSC 02/02 Q1024
  • 100255Z AUTO 25004KT 210V290 9999 NSC 03/02 Q1024
  • 100225Z AUTO 24005KT 9999 NSC 02/01 Q1024
  • 100155Z AUTO 25005KT 220V280 9999 NSC 02/02 Q1023

TAF TAF EHBK
Valide du 10 à 00h jusqu'au 11 à 06h UTC


092315Z 1000/1106 27006KT CAVOK
BECMG 1009/1012 21012KT
TEMPO 1012/1015 21015G25KT
BECMG 1015/1018 20020G30KT
TEMPO 1102/1106 4000 RA RADZ BKN013
BECMG 1103/1106 21012KT



MET'MAP, la Météo Aéronautique d'un coup d'oeil ! - Copyright ORBIFLY Décembre 2007 - Disclaimer

ORBIFLY MET'MAP TEAM :

Programmation & Développement : Alexandra Zaïnal
Sur une idée originale de : Baudouin d'Aumeries
Assistance à la programmation : Marc-Olivier Méhu
Soutien technique & logistique : Manuel Goepfert

Contact : metmap@orbifly.com




SOURCES & CREDITS :

   NOAA